地図

経路データ

SID SEASON NUMBER BASIN SUBBASIN NAME ISO_TIME NATURE LAT LON WMO_WIND WMO_PRES WMO_AGENCY TRACK_TYPE DIST2LAND LANDFALL IFLAG USA_AGENCY USA_ATCF_ID USA_LAT USA_LON USA_RECORD USA_STATUS USA_WIND USA_PRES USA_SSHS USA_R34_NE USA_R34_SE USA_R34_SW USA_R34_NW USA_R50_NE USA_R50_SE USA_R50_SW USA_R50_NW USA_R64_NE USA_R64_SE USA_R64_SW USA_R64_NW USA_POCI USA_ROCI USA_RMW USA_EYE TOKYO_LAT TOKYO_LON TOKYO_GRADE TOKYO_WIND TOKYO_PRES TOKYO_R50_DIR TOKYO_R50_LONG TOKYO_R50_SHORT TOKYO_R30_DIR TOKYO_R30_LONG TOKYO_R30_SHORT TOKYO_LAND CMA_LAT CMA_LON CMA_CAT CMA_WIND CMA_PRES HKO_LAT HKO_LON HKO_CAT HKO_WIND HKO_PRES NEWDELHI_LAT NEWDELHI_LON NEWDELHI_GRADE NEWDELHI_WIND NEWDELHI_PRES NEWDELHI_CI NEWDELHI_DP NEWDELHI_POCI REUNION_LAT REUNION_LON REUNION_TYPE REUNION_WIND REUNION_PRES REUNION_TNUM REUNION_CI REUNION_RMW REUNION_R34_NE REUNION_R34_SE REUNION_R34_SW REUNION_R34_NW REUNION_R50_NE REUNION_R50_SE REUNION_R50_SW REUNION_R50_NW REUNION_R64_NE REUNION_R64_SE REUNION_R64_SW REUNION_R64_NW BOM_LAT BOM_LON BOM_TYPE BOM_WIND BOM_PRES BOM_TNUM BOM_CI BOM_RMW BOM_R34_NE BOM_R34_SE BOM_R34_SW BOM_R34_NW BOM_R50_NE BOM_R50_SE BOM_R50_SW BOM_R50_NW BOM_R64_NE BOM_R64_SE BOM_R64_SW BOM_R64_NW BOM_ROCI BOM_POCI BOM_EYE BOM_POS_METHOD BOM_PRES_METHOD NADI_LAT NADI_LON NADI_CAT NADI_WIND NADI_PRES WELLINGTON_LAT WELLINGTON_LON WELLINGTON_WIND WELLINGTON_PRES DS824_LAT DS824_LON DS824_STAGE DS824_WIND DS824_PRES TD9636_LAT TD9636_LON TD9636_STAGE TD9636_WIND TD9636_PRES TD9635_LAT TD9635_LON TD9635_WIND TD9635_PRES TD9635_ROCI NEUMANN_LAT NEUMANN_LON NEUMANN_CLASS NEUMANN_WIND NEUMANN_PRES MLC_LAT MLC_LON MLC_CLASS MLC_WIND MLC_PRES USA_GUST BOM_GUST BOM_GUST_PER REUNION_GUST REUNION_GUST_PER USA_SEAHGT USA_SEARAD_NE USA_SEARAD_SE USA_SEARAD_SW USA_SEARAD_NW STORM_SPEED STORM_DIR
1923365S12062 1924 78 SI MM NOT_NAMED 1923-12-30 18:00:00 NR -12.3000 62.3000 main 1001 971 __________O___ -1 -12.3000 62.3000 2 5 222
1923365S12062 1924 78 SI MM NOT_NAMED 1923-12-30 21:00:00 NR -12.4688 62.1407 main 971 956 __________P___ -1 -12.4688 62.1407 2 5 223
1923365S12062 1924 78 SI MM NOT_NAMED 1923-12-31 00:00:00 NR -12.6400 61.9751 main 956 926 __________P___ -1 -12.6400 61.9751 2 5 224
1923365S12062 1924 78 SI MM NOT_NAMED 1923-12-31 03:00:00 NR -12.8162 61.7969 main 926 896 __________P___ -1 -12.8162 61.7969 2 5 225
1923365S12062 1924 78 SI MM NOT_NAMED 1923-12-31 06:00:00 TS -13.0000 61.6000 main 896 866 _________OO___ -1 -13.0000 61.6000 TC 35 -13.0000 61.6000 2 6 228
1923365S12062 1924 78 SI MM NOT_NAMED 1923-12-31 09:00:00 TS -13.1953 61.3675 main 866 832 _________PP___ -1 -13.2001 61.3401 TC 35 -13.1929 61.3813 2 6 229
1923365S12062 1924 78 SI MM NOT_NAMED 1923-12-31 12:00:00 TS -13.3958 61.1286 main 832 803 _________OP___ -1 -13.4000 61.1000 TC 35 -13.3926 61.1500 2 6 228
1923365S12062 1924 78 SI MM NOT_NAMED 1923-12-31 15:00:00 TS -13.5980 60.9056 main 803 773 _________PP___ -1 -13.6000 60.8924 TC 35 -13.5960 60.9188 2 6 226
1923365S12062 1924 78 SI MM NOT_NAMED 1923-12-31 18:00:00 TS -13.8000 60.7000 main 773 744 _________OO___ -1 -13.8000 60.7000 TC 35 -13.8000 60.7000 2 6 225
1923365S12062 1924 78 SI MM NOT_NAMED 1923-12-31 21:00:00 TS -13.9938 60.5035 main 744 715 _________PP___ -1 -14.0000 60.4925 TC 35 -13.9877 60.5144 2 5 223
1923365S12062 1924 78 SI MM NOT_NAMED 1924-01-01 00:00:00 TS -14.1887 60.3211 main 715 690 _________OP___ -1 -14.2000 60.3000 TC 35 -14.1773 60.3421 2 5 220
1923365S12062 1924 78 SI MM NOT_NAMED 1924-01-01 03:00:00 TS -14.3854 60.1618 main 690 662 _________PP___ -1 -14.3925 60.1499 TC 35 -14.3783 60.1738 2 5 217
1923365S12062 1924 78 SI MM NOT_NAMED 1924-01-01 06:00:00 TS -14.6000 60.0000 main 662 633 _________OO___ -1 -14.6000 60.0000 TC 35 -14.6000 60.0000 2 6 217
1923365S12062 1924 78 SI MM NOT_NAMED 1924-01-01 09:00:00 TS -14.8402 59.8033 main 633 594 _________PP___ -1 -14.8350 59.8075 TC 35 -14.8453 59.7991 2 6 218
1923365S12062 1924 78 SI MM NOT_NAMED 1924-01-01 12:00:00 TS -15.1063 59.5963 main 594 555 _________OP___ -1 -15.1000 59.6000 TC 35 -15.1126 59.5925 2 7 216
1923365S12062 1924 78 SI MM NOT_NAMED 1924-01-01 15:00:00 TS -15.3955 59.3911 main 555 517 _________PP___ -1 -15.3925 59.3925 TC 35 -15.3985 59.3897 2 7 213
1923365S12062 1924 78 SI MM NOT_NAMED 1924-01-01 18:00:00 TS -15.7000 59.2000 main 517 478 _________OO___ -1 -15.7000 59.2000 TC 35 -15.7000 59.2000 2 7 211
1923365S12062 1924 78 SI MM NOT_NAMED 1924-01-01 21:00:00 TS -15.9772 59.0308 main 478 443 _________PP___ -1 -15.9925 59.0424 TC 35 -15.9619 59.0192 2 7 208
1923365S12062 1924 78 SI MM NOT_NAMED 1924-01-02 00:00:00 TS -16.2725 58.8774 main 443 405 _________OP___ -1 -16.3000 58.9000 TC 35 -16.2451 58.8548 2 7 205
1923365S12062 1924 78 SI MM NOT_NAMED 1924-01-02 03:00:00 TS -16.5928 58.7314 main 405 359 _________PP___ -1 -16.6050 58.7499 TC 35 -16.5807 58.7130 2 8 200
1923365S12062 1924 78 SI MM NOT_NAMED 1924-01-02 06:00:00 TS -17.0000 58.6000 main 359 302 _________OO___ -1 -17.0000 58.6000 TC 35 -17.0000 58.6000 2 10 196
1923365S12062 1924 78 SI MM NOT_NAMED 1924-01-02 09:00:00 TS -17.5752 58.4428 main 289 221 _________PP___ -1 -17.5550 58.4203 TC 35 -17.5954 58.4652 2 13 192
1923365S12062 1924 78 SI MM NOT_NAMED 1924-01-02 12:00:00 TS -18.2323 58.3331 main 221 148 _________OP___ -1 -18.2000 58.3000 TC 35 -18.2647 58.3663 2 14 185
1923365S12062 1924 78 SI MM NOT_NAMED 1924-01-02 15:00:00 TS -18.9108 58.3120 main 148 99 _________PP___ -1 -18.8949 58.2899 TC 35 -18.9266 58.3340 2 13 177
1923365S12062 1924 78 SI MM NOT_NAMED 1924-01-02 18:00:00 TS -19.5000 58.4000 main 99 90 _________OO___ -1 -19.5000 58.4000 TC 35 -19.5000 58.4000 2 10 165
1923365S12062 1924 78 SI MM NOT_NAMED 1924-01-02 21:00:00 TS -19.8634 58.5780 main 94 94 _________PP___ -1 -19.8600 58.6051 TC 35 -19.8669 58.5509 2 8 145
1923365S12062 1924 78 SI MM NOT_NAMED 1924-01-03 00:00:00 TS -20.1195 58.8530 main 116 115 _________OP___ -1 -20.1000 58.9000 TC 35 -20.1390 58.8059 2 7 131
1923365S12062 1924 78 SI MM NOT_NAMED 1924-01-03 03:00:00 TS -20.3544 59.1779 main 146 146 _________PP___ -1 -20.3422 59.1979 TC 35 -20.3667 59.1579 2 9 124
1923365S12062 1924 78 SI MM NOT_NAMED 1924-01-03 06:00:00 TS -20.6000 59.6000 main 190 190 _________OO___ -1 -20.6000 59.6000 TC 35 -20.6000 59.6000 2 11 123
1923365S12062 1924 78 SI MM NOT_NAMED 1924-01-03 09:00:00 TS -20.9310 60.1378 main 248 248 _________PP___ -1 -20.9426 60.1623 TC 35 -20.9193 60.1133 2 13 122
1923365S12062 1924 78 SI MM NOT_NAMED 1924-01-03 12:00:00 TS -21.2754 60.7547 main 331 331 _________OP___ -1 -21.3000 60.8000 TC 35 -21.2507 60.7094 2 13 120
1923365S12062 1924 78 SI MM NOT_NAMED 1924-01-03 15:00:00 TS -21.5945 61.3757 main 401 401 _________PP___ -1 -21.6073 61.4003 TC 35 -21.5817 61.3510 2 13 118
1923365S12062 1924 78 SI MM NOT_NAMED 1924-01-03 18:00:00 TS -21.9000 62.0000 main 470 470 _________OO___ -1 -21.9000 62.0000 TC 35 -21.9000 62.0000 2 13 118
1923365S12062 1924 78 SI MM NOT_NAMED 1924-01-03 21:00:00 TS -22.2022 62.6130 main 540 540 _________PP___ -1 -22.2073 62.6002 TC 35 -22.1971 62.6259 2 13 118
1923365S12062 1924 78 SI MM NOT_NAMED 1924-01-04 00:00:00 TS -22.4879 63.2145 main 610 610 _________OP___ -1 -22.5000 63.2000 TC 35 -22.4757 63.2290 2 12 116
1923365S12062 1924 78 SI MM NOT_NAMED 1924-01-04 03:00:00 TS -22.7510 63.8086 main 680 680 _________PP___ -1 -22.7604 63.7996 TC 35 -22.7416 63.8176 2 12 115
1923365S12062 1924 78 SI MM NOT_NAMED 1924-01-04 06:00:00 TS -23.0000 64.4000 main 745 _________OO___ -1 -23.0000 64.4000 TC 35 -23.0000 64.4000 2 12 115

IBTrACS Databaseについて

本データベースは、米国NOAAが公開する1842年以降の世界の熱帯低気圧のベストトラックデータアーカイブInternational Best Track Archive for Climate Stewardship (IBTrACS)を、ウェブで閲覧しやすい形式に変換したものです。

最終更新日:2021-12-01